Terminal Aerodrome Forecast
Issued by NWS

Home | Current Version | Previous Version | Text Only | Print | Product List | Glossary On
Versions: 1 2 3 4 5 6 7 8 9 10 11 12 13 14 15 16
000
FTUS45 KTFX 061740
TAFCTB
TAF
KCTB 061740Z 0618/0718 02014KT P6SM SCT030 BKN070
      TEMPO 0618/0619 BKN030
     FM070100 02011KT P6SM SCT040 BKN080=

USA.gov is the U.S. government's official web portal to all federal, state and local government web resources and services.